Latest Coastal Weather Observations for Groote Eylandt Airport

IDD60701

Issued at 7:31 pm CST Saturday 22 February 2020 (issued every 10 minutes, with the page automatically refreshed every 10 minutes)

About coastal observations | Map of coastal stations | Coastal observations for NT | Marine services | Other Formats
Station Details ID: 014518 Name: GROOTE EYLANDT AIRPORT Lat: -13.97 Lon: 136.46 Height: 13.7 m
Data from the previous 72 hours. | See also: Recent months at Groote Eylandt Airport
Date/Time
CST
Wind Sea
Height
m
Swell Vis
km
Cloud Weather Temp
°C
Press
hPa
Rain since
9am
mm
Dir  Spd
kts
Gust
kts
Height
m
Period
s
Dir
22/07:30pm S 6 11 - - - - 10 Partly cloudy - 28.1 1003.7 14.8
22/07:00pm S 6 11 - - - - 10 Partly cloudy - 28.2 1003.5 14.8
22/06:30pm S 5 8 - - - - 10 Partly cloudy - 28.0 1003.1 14.8
22/06:00pm S 6 12 - - - - 10 Partly cloudy Rain 27.9 1002.8 14.8
22/05:30pm S 7 12 - - - - 10 - - 28.8 1002.3 14.8
22/05:00pm SSE 6 11 - - - - 10 Partly cloudy - 28.0 1002.2 14.8
22/04:30pm S 8 13 - - - - 10 Partly cloudy - 29.2 1002.3 14.4
22/04:00pm S 6 11 - - - - 10 Partly cloudy - 28.9 1002.5 14.4
22/03:35pm S 8 17 - - - - 10 Partly cloudy - 27.8 1002.5 14.4
22/03:30pm S 9 14 - - - - 10 Partly cloudy - 28.0 1002.5 14.4
22/03:22pm S 9 17 - - - - 5 Partly cloudy - 27.7 1002.5 14.4
22/03:00pm S 9 17 - - - - 10 Cloudy Recent precip. 29.8 1002.5 13.2
22/02:30pm S 8 17 - - - - 10 Partly cloudy - 29.6 1002.8 12.8
22/02:00pm S 7 11 - - - - 10 Partly cloudy - 29.2 1003.3 12.8
22/01:30pm S 6 11 - - - - 10 Partly cloudy - 28.8 1004.1 12.8
22/01:00pm SW 1 3 - - - - 10 Partly cloudy - 27.0 1004.7 12.8
22/12:30pm S 1 4 - - - - 10 Cloudy - 26.1 1005.2 12.8
22/12:00pm CALM 0 0 - - - - 10 Cloudy Rain 25.1 1005.4 12.8
22/11:30am SE 3 7 - - - - 10 Cloudy - 24.6 1006.0 12.8
22/11:00am SSE 7 12 - - - - 10 Partly cloudy - 25.0 1006.1 12.8
22/10:33am SSE 9 19 - - - - 4 Partly cloudy - 25.0 1006.6 9.6
22/10:31am SSE 9 14 - - - - 8 Partly cloudy - 25.1 1006.7 8.8
22/10:30am SSE 8 13 - - - - 10 Partly cloudy - 25.1 1006.6 8.6
22/10:23am S 7 13 - - - - 10 Partly cloudy - 25.0 1006.5 8.0
22/10:05am SSW 5 9 - - - - 5 Partly cloudy - 24.6 1006.7 7.2
22/10:00am SSW 4 8 - - - - 7 Partly cloudy - 24.5 1006.7 6.6
22/09:52am SSW 5 9 - - - - 9 Partly cloudy - 24.5 1006.9 6.2
22/09:30am S 8 15 - - - - 3 Partly cloudy - 24.7 1007.6 4.0
22/09:24am S 8 13 - - - - 5 Partly cloudy - 24.8 1007.8 2.8
22/09:08am S 5 8 - - - - 6 Partly cloudy - 24.8 1007.1 0.8
22/09:00am S 4 7 - - - - 7 Cloudy Showers 24.8 1006.9 46.0
22/08:47am SSW 5 7 - - - - 4 Partly cloudy - 24.6 1006.9 44.4
22/08:30am CALM 0 0 - - - - 10 Partly cloudy - 24.7 1006.6 41.8
22/08:00am CALM 0 0 - - - - 10 Partly cloudy - 24.3 1006.3 41.8
22/07:30am WSW 3 5 - - - - 10 Partly cloudy - 24.3 1005.8 41.8
22/07:00am SSW 1 4 - - - - 10 Partly cloudy - 24.0 1005.2 41.0
22/06:30am SSE 7 13 - - - - 10 Partly cloudy - 24.2 1005.4 40.0
22/06:29am SSE 6 13 - - - - 10 Partly cloudy - 24.2 1005.4 40.0
22/06:27am SSE 6 11 - - - - 10 Partly cloudy - 24.2 1005.4 40.0
22/06:14am SSE 9 16 - - - - 4 - - 24.4 1005.3 39.4
22/06:00am SE 9 18 - - - - 2 - Rain 24.0 1005.4 37.0
22/05:30am ESE 8 16 - - - - 1 Partly cloudy - 26.8 1004.3 22.4
22/05:10am CALM 0 0 - - - - 5 Partly cloudy - 25.6 1004.4 9.2
22/05:00am CALM 0 0 - - - - 10 Partly cloudy - 25.6 1004.3 8.6
22/04:30am ENE 3 5 - - - - 10 Partly cloudy - 25.7 1004.5 8.6
22/04:00am CALM 0 0 - - - - 10 Partly cloudy - 25.6 1004.0 8.6
22/03:30am CALM 0 0 - - - - 10 - - 25.8 1004.4 8.6
22/03:00am CALM 0 0 - - - - 10 Cloudy - 25.8 1004.8 8.6
22/02:30am CALM 0 0 - - - - 10 Cloudy - 26.0 1004.9 8.6
22/02:00am CALM 0 0 - - - - 10 Cloudy - 25.8 1005.2 8.6
22/01:30am CALM 0 0 - - - - 10 Partly cloudy - 25.7 1005.4 8.6
22/01:00am CALM 0 0 - - - - 10 Partly cloudy - 25.7 1005.8 8.6
22/12:30am CALM 0 0 - - - - 10 Partly cloudy - 25.6 1006.2 8.6
22/12:00am CALM 0 0 - - - - 10 Partly cloudy - 25.6 1006.6 8.6
 
Date/Time
CST
Wind Sea
Height
m
Swell Vis
km
Cloud Weather Temp
°C
Press
hPa
Rain since
9am
mm
Dir  Spd
kts
Gust
kts
Height
m
Period
s
Dir
21/11:30pm CALM 0 0 - - - - 10 Partly cloudy - 25.6 1006.8 8.6
21/11:00pm CALM 0 0 - - - - 10 - - 25.8 1007.1 8.6
21/10:30pm CALM 0 0 - - - - 10 - - 25.8 1007.1 8.6
21/10:00pm CALM 0 0 - - - - 10 Partly cloudy - 26.0 1007.0 8.6
21/09:30pm CALM 0 0 - - - - 10 - - 26.2 1006.7 8.6
21/09:00pm CALM 0 0 - - - - 10 Mostly cloudy - 26.3 1006.4 8.6
21/08:30pm CALM 0 0 - - - - 10 - - 26.4 1006.0 8.6
21/08:00pm CALM 0 0 - - - - 10 - - 26.6 1005.7 8.6
21/07:30pm CALM 0 0 - - - - 10 - - 26.7 1005.2 8.6
21/07:00pm ESE 3 5 - - - - 10 Partly cloudy - 26.7 1004.6 8.6
21/06:30pm S 2 5 - - - - 10 Partly cloudy - 26.6 1004.5 8.6
21/06:00pm SE 3 6 - - - - 10 Mostly cloudy Rain 26.3 1004.0 8.6
21/05:30pm S 3 5 - - - - 10 Partly cloudy - 26.1 1003.9 8.4
21/05:00pm S 4 6 - - - - 10 Partly cloudy - 26.1 1003.5 8.4
21/04:30pm SSE 6 11 - - - - 10 - - 26.0 1003.8 8.4
21/04:00pm SSE 7 11 - - - - 10 - - 26.0 1004.3 8.4
21/03:30pm SSE 7 11 - - - - 10 - - 25.3 1004.2 8.4
21/03:00pm ESE 5 9 - - - - 10 Mostly cloudy Rain 24.8 1004.8 8.4
21/02:30pm SE 9 22 - - - - 10 Partly cloudy - 26.3 1005.7 7.6
21/02:00pm S 5 9 - - - - 10 - - 29.1 1005.5 7.0
21/01:30pm S 5 10 - - - - 10 Partly cloudy - 29.2 1005.9 7.0
21/01:00pm SSW 4 6 - - - - 10 Partly cloudy - 28.4 1006.5 7.0
21/12:30pm SSW 4 7 - - - - 10 Partly cloudy - 27.6 1006.9 7.0
21/12:00pm SSW 3 4 - - - - 10 Cloudy Rain 26.4 1007.3 7.0
21/11:41am SW 4 5 - - - - 8 Partly cloudy - 25.6 1007.6 6.6
21/11:30am SSE 7 13 - - - - 5 Partly cloudy - 25.6 1007.7 5.8
21/11:15am SSW 6 12 - - - - 5 Partly cloudy - 27.1 1007.9 2.4
21/11:00am SSW 2 4 - - - - 10 Partly cloudy - 28.6 1007.3 0.2
21/10:30am SSE 5 8 - - - - 10 Partly cloudy - 28.3 1007.3 0.0
21/10:00am SE 5 10 - - - - 10 - - 27.8 1006.9 0.0
21/09:30am SE 8 13 - - - - 10 Partly cloudy - 27.3 1007.1 0.0
21/09:21am SE 7 14 - - - - 10 Partly cloudy - 27.3 1007.3 0.0
21/09:00am SE 6 16 - - - - 10 Cloudy Showers 26.7 1006.9 14.8
21/08:50am SSE 6 10 - - - - 10 Partly cloudy - 26.6 1006.6 14.8
21/08:48am SSE 5 10 - - - - 10 Partly cloudy - 26.5 1006.6 14.8
21/08:30am SE 9 18 - - - - 2 Partly cloudy - 26.1 1006.3 14.2
21/08:17am S 9 16 - - - - 5 Partly cloudy - 26.5 1006.4 9.2
21/08:00am SSE 2 5 - - - - 9 Partly cloudy - 28.9 1005.8 7.2
21/07:30am CALM 0 0 - - - - 10 Partly cloudy - 27.6 1005.8 6.8
21/07:00am CALM 0 0 - - - - 10 Partly cloudy - 26.6 1005.6 6.8
21/06:30am CALM 0 0 - - - - 10 Partly cloudy - 26.2 1005.3 6.8
21/06:00am CALM 0 0 - - - - 10 Partly cloudy - 26.2 1004.7 6.8
21/05:30am CALM 0 0 - - - - 10 - - 26.2 1004.5 6.8
21/05:00am CALM 0 0 - - - - 10 - - 26.4 1004.5 6.8
21/04:30am CALM 0 0 - - - - 10 - - 26.6 1004.5 6.8
21/04:00am CALM 0 0 - - - - 10 - - 26.6 1004.3 6.8
21/03:30am CALM 0 0 - - - - 10 - - 26.5 1004.5 6.8
21/03:00am CALM 0 0 - - - - 10 Cloudy - 26.5 1004.8 6.8
21/02:30am CALM 0 0 - - - - 10 Partly cloudy - 26.6 1005.2 6.8
21/02:00am CALM 0 0 - - - - 10 - - 26.7 1005.8 6.8
21/01:30am CALM 0 0 - - - - 10 - - 27.0 1006.0 6.8
21/01:00am CALM 0 0 - - - - 10 Partly cloudy - 27.0 1006.3 6.8
21/12:30am CALM 0 0 - - - - 10 Partly cloudy - 26.9 1007.0 6.8
21/12:00am CALM 0 0 - - - - 10 Mostly cloudy - 27.0 1007.3 6.8
 
Date/Time
CST
Wind Sea
Height
m
Swell Vis
km
Cloud Weather Temp
°C
Press
hPa
Rain since
9am
mm
Dir  Spd
kts
Gust
kts
Height
m
Period
s
Dir
20/11:30pm CALM 0 0 - - - - 10 Partly cloudy - 27.4 1007.5 6.8
20/11:00pm CALM 0 0 - - - - 10 Partly cloudy - 27.4 1007.3 6.8
20/10:30pm S 3 4 - - - - 10 Partly cloudy - 27.3 1007.3 6.8
20/10:00pm CALM 0 0 - - - - 10 Partly cloudy - 27.1 1006.9 6.8
20/09:30pm CALM 0 0 - - - - 10 - - 27.1 1006.6 6.8
20/09:00pm CALM 0 0 - - - - 10 - - 27.5 1006.1 6.8
20/08:30pm CALM 0 0 - - - - 10 - - 27.8 1005.6 6.8
20/08:00pm CALM 0 0 - - - - 10 - - 28.2 1005.1 6.8
20/07:30pm ESE 3 4 - - - - 10 Partly cloudy - 28.5 1004.9 6.8
20/07:00pm NNE 3 5 - - - - 10 Partly cloudy - 29.2 1004.5 6.8
20/06:30pm CALM 0 4 - - - - 10 Partly cloudy - 29.8 1004.3 6.8
20/06:00pm CALM 0 2 - - - - 10 Cloudy - 30.0 1003.9 6.8
20/05:30pm W 1 5 - - - - 10 Partly cloudy - 30.0 1003.5 6.8
20/05:00pm WSW 3 6 - - - - 10 Partly cloudy - 29.7 1003.4 6.8
20/04:30pm WSW 3 6 - - - - 10 Partly cloudy - 30.1 1003.6 6.8
20/04:00pm SW 5 9 - - - - 10 Partly cloudy - 29.9 1003.7 6.8
20/03:30pm WSW 7 11 - - - - 10 Partly cloudy - 29.6 1003.9 6.8
20/03:00pm S 4 6 - - - - 10 Cloudy - 29.7 1004.2 6.8
20/02:30pm SW 4 8 - - - - 10 Partly cloudy - 28.8 1004.6 6.8
20/02:00pm WSW 2 5 - - - - 10 Partly cloudy - 28.6 1004.8 6.8
20/01:30pm WSW 5 9 - - - - 10 Partly cloudy - 27.7 1005.5 6.6
20/01:00pm N 4 6 - - - - 10 Partly cloudy - 26.2 1006.4 6.6
20/12:30pm CALM 0 0 - - - - 10 Partly cloudy - 25.1 1006.9 6.6
20/12:00pm ESE 5 7 - - - - 10 Cloudy Showers 24.4 1007.6 6.6
20/11:39am NE 6 8 - - - - 10 Partly cloudy - 24.3 1007.4 6.2
20/11:30am CALM 0 5 - - - - 10 Partly cloudy - 24.6 1007.1 6.2
20/11:00am E 4 6 - - - - 10 Partly cloudy - 24.7 1008.1 6.2
20/10:48am ESE 2 5 - - - - 10 Partly cloudy - 24.9 1008.5 6.0
20/10:36am SE 3 8 - - - - 4 Partly cloudy - 24.8 1008.7 5.8
20/10:30am SSE 4 11 - - - - 2 Partly cloudy - 24.9 1008.6 5.4
20/10:19am S 9 17 - - - - 5 Partly cloudy - 25.3 1008.2 1.0
20/10:00am W 9 16 - - - - 10 Partly cloudy - 29.6 1007.1 0.0
20/09:30am WSW 4 7 - - - - 10 Partly cloudy - 30.2 1007.1 0.0
20/09:00am SW 6 8 - - - - 10 Cloudy - 29.9 1007.0 1.0
20/08:30am WSW 5 7 - - - - 10 Partly cloudy - 29.4 1006.4 1.0
20/08:00am SSE 2 5 - - - - 10 Partly cloudy - 28.3 1005.9 1.0
20/07:30am CALM 0 0 - - - - 10 Partly cloudy - 26.4 1006.0 1.0
20/07:00am ESE 3 4 - - - - 10 Partly cloudy - 25.6 1005.9 1.0
20/06:30am CALM 0 0 - - - - 10 Partly cloudy - 26.0 1005.4 1.0
20/06:00am CALM 0 0 - - - - 10 Mostly cloudy - 25.6 1005.0 1.0
20/05:30am CALM 0 0 - - - - 10 - - 25.5 1004.7 1.0
20/05:00am ESE 3 4 - - - - 10 - - 25.4 1004.0 1.0
20/04:30am CALM 0 4 - - - - 10 Partly cloudy - 25.6 1004.0 1.0
20/04:00am CALM 0 0 - - - - 10 - - 25.9 1003.7 1.0
20/03:30am CALM 0 0 - - - - 10 - - 26.2 1003.8 1.0
20/03:00am CALM 0 1 - - - - 10 Mostly cloudy - 26.2 1004.2 1.0
20/02:30am CALM 0 0 - - - - 10 - - 26.2 1004.7 1.0
20/02:00am CALM 0 0 - - - - 10 Partly cloudy - 26.0 1005.2 1.0
20/01:30am S 2 4 - - - - 10 - - 25.9 1005.0 1.0
20/01:00am CALM 0 0 - - - - 10 - - 25.8 1005.1 1.0
20/12:30am CALM 0 0 - - - - 10 - - 26.2 1005.4 1.0
20/12:00am CALM 0 0 - - - - 10 - - 26.3 1005.8 1.0
 
Date/Time
CST
Wind Sea
Height
m
Swell Vis
km
Cloud Weather Temp
°C
Press
hPa
Rain since
9am
mm
Dir  Spd
kts
Gust
kts
Height
m
Period
s
Dir
19/11:30pm CALM 0 0 - - - - 10 - - 26.2 1006.0 1.0
19/11:00pm CALM 0 0 - - - - 10 - - 26.3 1006.2 1.0
19/10:30pm CALM 0 0 - - - - 10 - - 26.7 1006.4 1.0
19/10:00pm CALM 0 0 - - - - 10 - - 26.8 1006.5 1.0
19/09:30pm CALM 0 0 - - - - 10 - - 27.2 1006.3 1.0
19/09:00pm ESE 3 5 - - - - 10 - - 27.4 1006.1 1.0
19/08:30pm SSE 3 5 - - - - 10 - - 27.5 1005.6 1.0
19/08:00pm CALM 0 0 - - - - 10 - - 27.7 1005.0 1.0

Other formats

Comma delimited format used in spreadsheet applications
http://www.bom.gov.au/fwo/IDD60701/IDD60701.94153.axf

JavaScript Object Notation format (JSON) in row-major order
http://www.bom.gov.au/fwo/IDD60701/IDD60701.94153.json

Data quality

Most of these data are generated automatically and are frequently updated. Quality checks on data are not normally performed. It is possible for incorrect values to appear. Refer to information at About Latest Weather Observations and please check the disclaimer before using these data.